Terminal Aerodrome Forecast
Issued by NWS Wichita, KS

Home | Current Version | Previous Version | Graphics & Text | Print | Product List | Glossary On
Versions: 1 2 3 4 5 6 7 8 9 10 11 12 13 14 15 16 17 18
000
FTUS43 KICT 311735
TAFICT
TAF
KICT 311735Z 3118/0118 07006KT P6SM SCT030
      TEMPO 3118/3122 BKN025
     FM312200 10007KT P6SM SCT025
     FM010800 12006KT 5SM BR SCT007 BKN012
     FM011500 14011KT P6SM SCT020 BKN035=

USA.gov is the U.S. government's official web portal to all federal, state and local government web resources and services.